sensor_id;sensor_type;location;lat;lon;timestamp;pressure;altitude;pressure_sealevel;temperature;humidity
77799;BME280;66989;50.426;15.352;2023-02-27T00:00:52;98866.44;;;-0.99;82.44
77799;BME280;66989;50.426;15.352;2023-02-27T00:03:17;98866.44;;;-0.99;82.67
77799;BME280;66989;50.426;15.352;2023-02-27T00:05:43;98869.03;;;-1.01;82.82
77799;BME280;66989;50.426;15.352;2023-02-27T00:08:08;98868.28;;;-1.04;82.54
77799;BME280;66989;50.426;15.352;2023-02-27T00:10:33;98868.28;;;-1.06;82.82
77799;BME280;66989;50.426;15.352;2023-02-27T00:12:59;98865.69;;;-1.06;83.40
77799;BME280;66989;50.426;15.352;2023-02-27T00:15:25;98863.94;;;-1.04;82.55
77799;BME280;66989;50.426;15.352;2023-02-27T00:17:50;98864.84;;;-1.05;83.07
77799;BME280;66989;50.426;15.352;2023-02-27T00:20:17;98869.13;;;-1.04;83.13
77799;BME280;66989;50.426;15.352;2023-02-27T00:22:44;98859.66;;;-1.06;82.93
77799;BME280;66989;50.426;15.352;2023-02-27T00:25:12;98870.00;;;-1.05;82.91
77799;BME280;66989;50.426;15.352;2023-02-27T00:27:38;98866.53;;;-1.05;83.15
77799;BME280;66989;50.426;15.352;2023-02-27T00:30:05;98867.44;;;-1.06;82.90
77799;BME280;66989;50.426;15.352;2023-02-27T00:32:31;98867.41;;;-1.05;83.21
77799;BME280;66989;50.426;15.352;2023-02-27T00:34:56;98864.84;;;-1.06;82.89
77799;BME280;66989;50.426;15.352;2023-02-27T00:37:22;98868.31;;;-1.07;83.52
77799;BME280;66989;50.426;15.352;2023-02-27T00:39:47;98858.81;;;-1.07;83.51
77799;BME280;66989;50.426;15.352;2023-02-27T00:42:14;98864.88;;;-1.08;83.58
77799;BME280;66989;50.426;15.352;2023-02-27T00:44:40;98857.16;;;-1.09;83.48
77799;BME280;66989;50.426;15.352;2023-02-27T00:47:05;98863.13;;;-1.07;83.42
77799;BME280;66989;50.426;15.352;2023-02-27T00:49:31;98864.06;;;-1.10;83.16
77799;BME280;66989;50.426;15.352;2023-02-27T00:51:56;98864.06;;;-1.10;83.28
77799;BME280;66989;50.426;15.352;2023-02-27T00:54:21;98866.66;;;-1.11;83.49
77799;BME280;66989;50.426;15.352;2023-02-27T00:56:47;98864.97;;;-1.12;83.73
77799;BME280;66989;50.426;15.352;2023-02-27T00:59:13;98865.00;;;-1.14;83.43
77799;BME280;66989;50.426;15.352;2023-02-27T01:01:38;98858.97;;;-1.15;83.61
77799;BME280;66989;50.426;15.352;2023-02-27T01:04:04;98861.53;;;-1.13;83.32
77799;BME280;66989;50.426;15.352;2023-02-27T01:06:29;98858.09;;;-1.13;83.22
77799;BME280;66989;50.426;15.352;2023-02-27T01:08:55;98865.00;;;-1.14;83.12
77799;BME280;66989;50.426;15.352;2023-02-27T01:11:20;98861.56;;;-1.15;83.29
77799;BME280;66989;50.426;15.352;2023-02-27T01:13:46;98862.41;;;-1.14;83.28
77799;BME280;66989;50.426;15.352;2023-02-27T01:16:12;98871.06;;;-1.15;82.75
77799;BME280;66989;50.426;15.352;2023-02-27T01:18:38;98860.69;;;-1.13;82.56
77799;BME280;66989;50.426;15.352;2023-02-27T01:21:04;98864.97;;;-1.12;81.48
77799;BME280;66989;50.426;15.352;2023-02-27T01:23:29;98864.13;;;-1.13;81.87
77799;BME280;66989;50.426;15.352;2023-02-27T01:25:54;98865.81;;;-1.12;81.24
77799;BME280;66989;50.426;15.352;2023-02-27T01:28:20;98873.53;;;-1.10;80.76
77799;BME280;66989;50.426;15.352;2023-02-27T01:30:46;98873.53;;;-1.10;80.27
77799;BME280;66989;50.426;15.352;2023-02-27T01:33:11;98870.94;;;-1.10;80.32
77799;BME280;66989;50.426;15.352;2023-02-27T01:35:37;98877.00;;;-1.10;80.25
77799;BME280;66989;50.426;15.352;2023-02-27T01:38:02;98875.28;;;-1.11;80.33
77799;BME280;66989;50.426;15.352;2023-02-27T01:40:28;98877.84;;;-1.11;79.84
77799;BME280;66989;50.426;15.352;2023-02-27T01:42:53;98873.56;;;-1.12;79.71
77799;BME280;66989;50.426;15.352;2023-02-27T01:48:04;98887.34;;;-1.10;79.56
77799;BME280;66989;50.426;15.352;2023-02-27T01:50:30;98882.22;;;-1.13;78.88
77799;BME280;66989;50.426;15.352;2023-02-27T01:52:59;98886.59;;;-1.15;79.05
77799;BME280;66989;50.426;15.352;2023-02-27T01:55:27;98890.03;;;-1.15;79.20
77799;BME280;66989;50.426;15.352;2023-02-27T01:57:54;98886.59;;;-1.15;78.48
77799;BME280;66989;50.426;15.352;2023-02-27T02:00:20;98886.63;;;-1.18;78.52
77799;BME280;66989;50.426;15.352;2023-02-27T02:02:56;98886.63;;;-1.18;78.86
77799;BME280;66989;50.426;15.352;2023-02-27T02:05:24;98888.41;;;-1.20;78.20
77799;BME280;66989;50.426;15.352;2023-02-27T02:07:50;98894.44;;;-1.20;78.55
77799;BME280;66989;50.426;15.352;2023-02-27T02:10:17;98892.69;;;-1.21;78.16
77799;BME280;66989;50.426;15.352;2023-02-27T02:12:44;98892.72;;;-1.22;78.45
77799;BME280;66989;50.426;15.352;2023-02-27T02:15:12;98897.09;;;-1.24;78.47
77799;BME280;66989;50.426;15.352;2023-02-27T02:17:55;98897.97;;;-1.25;78.55
77799;BME280;66989;50.426;15.352;2023-02-27T02:20:41;98893.69;;;-1.28;77.98
77799;BME280;66989;50.426;15.352;2023-02-27T02:39:54;98916.28;;;-1.37;77.20
77799;BME280;66989;50.426;15.352;2023-02-27T02:42:45;98908.59;;;-1.41;77.07
77799;BME280;66989;50.426;15.352;2023-02-27T02:45:24;98916.41;;;-1.44;77.75
77799;BME280;66989;50.426;15.352;2023-02-27T02:50:48;98924.38;;;-1.57;78.25
77799;BME280;66989;50.426;15.352;2023-02-27T02:53:26;98936.50;;;-1.61;78.49
77799;BME280;66989;50.426;15.352;2023-02-27T02:58:59;98933.22;;;-1.72;79.15
77799;BME280;66989;50.426;15.352;2023-02-27T03:01:32;98936.78;;;-1.79;78.77
77799;BME280;66989;50.426;15.352;2023-02-27T03:06:33;98947.25;;;-1.87;79.63
77799;BME280;66989;50.426;15.352;2023-02-27T03:09:07;98953.38;;;-1.92;79.59
77799;BME280;66989;50.426;15.352;2023-02-27T03:11:39;98953.38;;;-1.94;79.25
77799;BME280;66989;50.426;15.352;2023-02-27T03:14:30;98954.34;;;-2.01;80.35
77799;BME280;66989;50.426;15.352;2023-02-27T03:17:01;98963.00;;;-2.05;80.92
77799;BME280;66989;50.426;15.352;2023-02-27T03:20:05;98960.47;;;-2.10;80.79
77799;BME280;66989;50.426;15.352;2023-02-27T03:22:37;98968.28;;;-2.13;81.00
77799;BME280;66989;50.426;15.352;2023-02-27T03:25:07;98969.22;;;-2.18;80.56
77799;BME280;66989;50.426;15.352;2023-02-27T03:27:36;98964.97;;;-2.24;81.44
77799;BME280;66989;50.426;15.352;2023-02-27T03:30:07;98963.31;;;-2.30;80.71
77799;BME280;66989;50.426;15.352;2023-02-27T03:32:39;98968.56;;;-2.33;81.70
77799;BME280;66989;50.426;15.352;2023-02-27T03:35:10;98972.88;;;-2.33;81.13
77799;BME280;66989;50.426;15.352;2023-02-27T03:40:33;98977.22;;;-2.38;81.63
77799;BME280;66989;50.426;15.352;2023-02-27T03:43:11;98979.06;;;-2.48;82.16
77799;BME280;66989;50.426;15.352;2023-02-27T03:46:01;98976.56;;;-2.56;82.08
77799;BME280;66989;50.426;15.352;2023-02-27T03:48:28;98983.63;;;-2.70;82.36
77799;BME280;66989;50.426;15.352;2023-02-27T03:50:54;98976.84;;;-2.80;82.37
77799;BME280;66989;50.426;15.352;2023-02-27T03:53:33;98980.38;;;-2.92;82.60
77799;BME280;66989;50.426;15.352;2023-02-27T03:56:04;98986.56;;;-3.05;83.32
77799;BME280;66989;50.426;15.352;2023-02-27T03:58:32;98990.09;;;-3.18;84.44
77799;BME280;66989;50.426;15.352;2023-02-27T04:00:57;98994.53;;;-3.31;84.72
77799;BME280;66989;50.426;15.352;2023-02-27T04:03:23;98997.22;;;-3.45;84.60
77799;BME280;66989;50.426;15.352;2023-02-27T04:05:49;98996.44;;;-3.59;85.41
77799;BME280;66989;50.426;15.352;2023-02-27T04:08:38;98999.97;;;-3.71;86.10
77799;BME280;66989;50.426;15.352;2023-02-27T04:11:31;98999.16;;;-3.78;86.39
77799;BME280;66989;50.426;15.352;2023-02-27T04:19:35;98997.56;;;-3.95;86.97
77799;BME280;66989;50.426;15.352;2023-02-27T04:24:56;99007.06;;;-4.02;88.50
77799;BME280;66989;50.426;15.352;2023-02-27T04:27:38;99013.06;;;-3.98;88.89
77799;BME280;66989;50.426;15.352;2023-02-27T04:32:51;99010.44;;;-3.95;89.17
77799;BME280;66989;50.426;15.352;2023-02-27T04:35:29;99015.63;;;-3.94;88.67
77799;BME280;66989;50.426;15.352;2023-02-27T04:38:18;99009.56;;;-3.91;88.29
77799;BME280;66989;50.426;15.352;2023-02-27T04:40:52;99008.75;;;-3.93;88.58
77799;BME280;66989;50.426;15.352;2023-02-27T04:43:21;99008.75;;;-3.96;87.83
77799;BME280;66989;50.426;15.352;2023-02-27T04:45:49;99010.50;;;-4.01;87.93
77799;BME280;66989;50.426;15.352;2023-02-27T04:48:20;99012.22;;;-4.05;88.25
77799;BME280;66989;50.426;15.352;2023-02-27T04:50:51;99015.66;;;-4.06;88.85
77799;BME280;66989;50.426;15.352;2023-02-27T04:53:27;99012.25;;;-4.07;88.74
77799;BME280;66989;50.426;15.352;2023-02-27T04:56:04;99015.69;;;-4.08;89.04
77799;BME280;66989;50.426;15.352;2023-02-27T04:58:46;99021.66;;;-4.06;89.15
77799;BME280;66989;50.426;15.352;2023-02-27T05:01:24;99012.22;;;-4.05;89.49
77799;BME280;66989;50.426;15.352;2023-02-27T05:03:53;99022.50;;;-4.02;89.41
77799;BME280;66989;50.426;15.352;2023-02-27T05:06:24;99020.78;;;-3.98;89.20
77799;BME280;66989;50.426;15.352;2023-02-27T05:11:35;99031.00;;;-3.89;88.81
77799;BME280;66989;50.426;15.352;2023-02-27T05:14:09;99029.28;;;-3.89;88.26
77799;BME280;66989;50.426;15.352;2023-02-27T05:16:42;99032.72;;;-3.90;88.59
77799;BME280;66989;50.426;15.352;2023-02-27T05:19:10;99031.06;;;-3.92;87.97
77799;BME280;66989;50.426;15.352;2023-02-27T05:24:11;99033.66;;;-3.98;88.16
77799;BME280;66989;50.426;15.352;2023-02-27T05:26:51;99038.84;;;-4.05;88.49
77799;BME280;66989;50.426;15.352;2023-02-27T05:34:56;99044.94;;;-4.27;89.32
77799;BME280;66989;50.426;15.352;2023-02-27T05:37:34;99048.38;;;-4.31;90.15
77799;BME280;66989;50.426;15.352;2023-02-27T05:40:05;99053.56;;;-4.34;90.55
77799;BME280;66989;50.426;15.352;2023-02-27T05:42:39;99056.13;;;-4.30;90.26
77799;BME280;66989;50.426;15.352;2023-02-27T05:45:19;99058.69;;;-4.28;90.81
77799;BME280;66989;50.426;15.352;2023-02-27T05:47:55;99058.63;;;-4.16;91.19
77799;BME280;66989;50.426;15.352;2023-02-27T05:50:25;99058.63;;;-4.13;91.19
77799;BME280;66989;50.426;15.352;2023-02-27T05:52:53;99059.44;;;-4.08;90.49
77799;BME280;66989;50.426;15.352;2023-02-27T05:55:29;99062.00;;;-4.01;90.49
77799;BME280;66989;50.426;15.352;2023-02-27T06:00:56;99065.34;;;-3.87;90.19
77799;BME280;66989;50.426;15.352;2023-02-27T06:03:23;99066.19;;;-3.84;89.86
77799;BME280;66989;50.426;15.352;2023-02-27T06:05:50;99073.91;;;-3.84;89.61
77799;BME280;66989;50.426;15.352;2023-02-27T06:08:20;99067.03;;;-3.82;88.80
77799;BME280;66989;50.426;15.352;2023-02-27T06:10:46;99074.78;;;-3.83;88.71
77799;BME280;66989;50.426;15.352;2023-02-27T06:13:12;99081.63;;;-3.82;88.87
77799;BME280;66989;50.426;15.352;2023-02-27T06:15:38;99078.19;;;-3.83;88.95
77799;BME280;66989;50.426;15.352;2023-02-27T06:18:04;99089.31;;;-3.79;88.35
77799;BME280;66989;50.426;15.352;2023-02-27T06:20:30;99081.59;;;-3.78;88.22
77799;BME280;66989;50.426;15.352;2023-02-27T06:22:56;99089.31;;;-3.71;88.15
77799;BME280;66989;50.426;15.352;2023-02-27T06:25:21;99098.72;;;-3.66;87.98
77799;BME280;66989;50.426;15.352;2023-02-27T06:27:47;99095.25;;;-3.62;87.67
77799;BME280;66989;50.426;15.352;2023-02-27T06:30:12;99098.69;;;-3.57;87.27
77799;BME280;66989;50.426;15.352;2023-02-27T06:32:38;99096.06;;;-3.54;86.96
77799;BME280;66989;50.426;15.352;2023-02-27T06:35:04;99099.50;;;-3.52;86.74
77799;BME280;66989;50.426;15.352;2023-02-27T06:37:30;99103.75;;;-3.49;86.99
77799;BME280;66989;50.426;15.352;2023-02-27T06:39:56;99105.47;;;-3.45;86.72
77799;BME280;66989;50.426;15.352;2023-02-27T06:42:22;99108.03;;;-3.40;86.43
77799;BME280;66989;50.426;15.352;2023-02-27T06:44:48;99101.13;;;-3.35;85.86
77799;BME280;66989;50.426;15.352;2023-02-27T06:47:14;99108.81;;;-3.29;85.97
77799;BME280;66989;50.426;15.352;2023-02-27T06:49:39;99116.50;;;-3.23;85.46
77799;BME280;66989;50.426;15.352;2023-02-27T06:52:05;99111.31;;;-3.15;84.63
77799;BME280;66989;50.426;15.352;2023-02-27T06:54:30;99112.94;;;-3.05;85.01
77799;BME280;66989;50.426;15.352;2023-02-27T06:56:56;99119.72;;;-2.93;83.44
77799;BME280;66989;50.426;15.352;2023-02-27T06:59:21;99117.06;;;-2.84;83.23
77799;BME280;66989;50.426;15.352;2023-02-27T07:01:47;99122.16;;;-2.75;83.45
77799;BME280;66989;50.426;15.352;2023-02-27T07:04:13;99118.59;;;-2.62;82.61
77799;BME280;66989;50.426;15.352;2023-02-27T07:06:38;99117.69;;;-2.55;82.39
77799;BME280;66989;50.426;15.352;2023-02-27T07:09:04;99125.31;;;-2.46;81.75
77799;BME280;66989;50.426;15.352;2023-02-27T07:11:29;99120.97;;;-2.40;81.92
77799;BME280;66989;50.426;15.352;2023-02-27T07:13:55;99121.78;;;-2.34;81.85
77799;BME280;66989;50.426;15.352;2023-02-27T07:16:22;99122.56;;;-2.27;81.74
77799;BME280;66989;50.426;15.352;2023-02-27T07:18:50;99121.56;;;-2.14;82.26
77799;BME280;66989;50.426;15.352;2023-02-27T07:21:16;99118.84;;;-2.02;82.32
77799;BME280;66989;50.426;15.352;2023-02-27T07:23:41;99120.44;;;-1.93;81.66
77799;BME280;66989;50.426;15.352;2023-02-27T07:26:07;99118.63;;;-1.83;81.55
77799;BME280;66989;50.426;15.352;2023-02-27T07:28:32;99119.38;;;-1.74;81.07
77799;BME280;66989;50.426;15.352;2023-02-27T07:30:58;99118.34;;;-1.60;80.67
77799;BME280;66989;50.426;15.352;2023-02-27T07:33:23;99119.88;;;-1.46;79.79
77799;BME280;66989;50.426;15.352;2023-02-27T07:35:49;99126.56;;;-1.32;80.15
77799;BME280;66989;50.426;15.352;2023-02-27T07:38:15;99117.78;;;-1.19;79.49
77799;BME280;66989;50.426;15.352;2023-02-27T07:40:40;99114.06;;;-1.03;78.43
77799;BME280;66989;50.426;15.352;2023-02-27T07:43:06;99115.50;;;-0.83;77.42
77799;BME280;66989;50.426;15.352;2023-02-27T07:45:32;99114.38;;;-0.67;76.70
77799;BME280;66989;50.426;15.352;2023-02-27T07:47:57;99108.91;;;-0.52;75.41
77799;BME280;66989;50.426;15.352;2023-02-27T07:50:22;99113.84;;;-0.38;74.36
77799;BME280;66989;50.426;15.352;2023-02-27T07:52:48;99105.78;;;-0.21;74.45
77799;BME280;66989;50.426;15.352;2023-02-27T07:55:13;99112.00;;;0.13;72.91
77799;BME280;66989;50.426;15.352;2023-02-27T07:57:39;99111.31;;;0.47;71.55
77799;BME280;66989;50.426;15.352;2023-02-27T08:00:06;99104.31;;;0.89;70.38
77799;BME280;66989;50.426;15.352;2023-02-27T08:02:32;99109.09;;;1.08;69.46
77799;BME280;66989;50.426;15.352;2023-02-27T08:04:58;99106.41;;;1.11;68.83
77799;BME280;66989;50.426;15.352;2023-02-27T08:07:24;99111.84;;;1.00;69.52
77799;BME280;66989;50.426;15.352;2023-02-27T08:09:49;99106.44;;;1.45;67.95
77799;BME280;66989;50.426;15.352;2023-02-27T08:12:15;99104.56;;;1.83;66.95
77799;BME280;66989;50.426;15.352;2023-02-27T08:14:40;99108.44;;;2.30;64.95
77799;BME280;66989;50.426;15.352;2023-02-27T08:17:06;99103.44;;;2.83;62.55
77799;BME280;66989;50.426;15.352;2023-02-27T08:19:31;99110.38;;;3.11;61.48
77799;BME280;66989;50.426;15.352;2023-02-27T08:24:33;99100.00;;;3.36;61.55
77799;BME280;66989;50.426;15.352;2023-02-27T08:29:36;99105.84;;;3.69;58.82
77799;BME280;66989;50.426;15.352;2023-02-27T08:32:01;99102.13;;;4.24;57.94
77799;BME280;66989;50.426;15.352;2023-02-27T08:34:29;99103.72;;;4.28;56.57
77799;BME280;66989;50.426;15.352;2023-02-27T08:36:54;99101.53;;;4.63;56.02
77799;BME280;66989;50.426;15.352;2023-02-27T08:39:20;99097.84;;;5.34;52.64
77799;BME280;66989;50.426;15.352;2023-02-27T08:41:49;99103.88;;;5.98;48.26
77799;BME280;66989;50.426;15.352;2023-02-27T08:44:16;99098.53;;;6.59;46.26
77799;BME280;66989;50.426;15.352;2023-02-27T08:46:41;99098.19;;;6.48;43.91
77799;BME280;66989;50.426;15.352;2023-02-27T08:49:06;99100.03;;;6.46;44.42
77799;BME280;66989;50.426;15.352;2023-02-27T08:51:32;99083.28;;;7.05;42.98
77799;BME280;66989;50.426;15.352;2023-02-27T08:53:59;99086.44;;;7.99;40.92
77799;BME280;66989;50.426;15.352;2023-02-27T08:56:26;99080.59;;;9.38;37.16
77799;BME280;66989;50.426;15.352;2023-02-27T08:58:51;99083.75;;;10.48;35.76
77799;BME280;66989;50.426;15.352;2023-02-27T09:01:17;99084.97;;;10.98;34.49
77799;BME280;66989;50.426;15.352;2023-02-27T09:03:45;99079.88;;;11.49;32.92
77799;BME280;66989;50.426;15.352;2023-02-27T09:06:10;99079.16;;;12.25;31.62
77799;BME280;66989;50.426;15.352;2023-02-27T09:08:37;99078.63;;;12.45;30.91
77799;BME280;66989;50.426;15.352;2023-02-27T09:11:03;99078.03;;;13.39;29.77
77799;BME280;66989;50.426;15.352;2023-02-27T09:13:29;99089.00;;;12.98;29.40
77799;BME280;66989;50.426;15.352;2023-02-27T09:15:55;99091.00;;;12.94;28.93
77799;BME280;66989;50.426;15.352;2023-02-27T09:18:21;99093.09;;;12.14;29.98
77799;BME280;66989;50.426;15.352;2023-02-27T09:20:56;99101.44;;;11.55;30.54
77799;BME280;66989;50.426;15.352;2023-02-27T09:23:26;99101.03;;;12.27;30.40
77799;BME280;66989;50.426;15.352;2023-02-27T09:25:52;99096.47;;;13.76;28.81
77799;BME280;66989;50.426;15.352;2023-02-27T09:28:18;99099.56;;;14.51;28.09
77799;BME280;66989;50.426;15.352;2023-02-27T09:30:45;99093.81;;;15.12;26.68
77799;BME280;66989;50.426;15.352;2023-02-27T09:33:11;99083.22;;;15.55;26.60
77799;BME280;66989;50.426;15.352;2023-02-27T09:35:36;99087.72;;;15.75;25.90
77799;BME280;66989;50.426;15.352;2023-02-27T09:38:02;99079.16;;;15.93;25.76
77799;BME280;66989;50.426;15.352;2023-02-27T09:40:29;99086.81;;;15.65;26.12
77799;BME280;66989;50.426;15.352;2023-02-27T09:42:59;99088.72;;;15.31;25.70
77799;BME280;66989;50.426;15.352;2023-02-27T09:45:28;99085.25;;;15.84;25.78
77799;BME280;66989;50.426;15.352;2023-02-27T09:48:02;99083.44;;;15.84;25.40
77799;BME280;66989;50.426;15.352;2023-02-27T09:50:37;99088.97;;;15.92;25.41
77799;BME280;66989;50.426;15.352;2023-02-27T09:53:10;99094.88;;;15.32;25.94
77799;BME280;66989;50.426;15.352;2023-02-27T09:55:39;99091.50;;;16.66;25.44
77799;BME280;66989;50.426;15.352;2023-02-27T10:01:04;99088.56;;;18.35;22.87
77799;BME280;66989;50.426;15.352;2023-02-27T10:03:36;99075.75;;;20.03;19.77
77799;BME280;66989;50.426;15.352;2023-02-27T10:09:03;99073.41;;;20.00;19.08
77799;BME280;66989;50.426;15.352;2023-02-27T10:11:50;99078.50;;;19.57;18.64
77799;BME280;66989;50.426;15.352;2023-02-27T10:14:30;99086.16;;;18.42;19.55
77799;BME280;66989;50.426;15.352;2023-02-27T10:17:03;99073.19;;;20.71;19.47
77799;BME280;66989;50.426;15.352;2023-02-27T10:19:33;99076.44;;;20.83;18.76
77799;BME280;66989;50.426;15.352;2023-02-27T10:22:04;99069.22;;;21.34;17.58
77799;BME280;66989;50.426;15.352;2023-02-27T10:24:50;99066.34;;;22.66;17.63
77799;BME280;66989;50.426;15.352;2023-02-27T10:27:20;99046.03;;;24.02;16.38
77799;BME280;66989;50.426;15.352;2023-02-27T10:29:48;99064.53;;;23.59;16.45
77799;BME280;66989;50.426;15.352;2023-02-27T10:32:33;99062.81;;;23.67;16.36
77799;BME280;66989;50.426;15.352;2023-02-27T10:35:08;99067.59;;;21.49;17.60
77799;BME280;66989;50.426;15.352;2023-02-27T10:37:45;99081.91;;;19.14;19.67
77799;BME280;66989;50.426;15.352;2023-02-27T10:40:13;99085.38;;;18.12;21.33
77799;BME280;66989;50.426;15.352;2023-02-27T10:42:41;99086.66;;;16.29;22.56
77799;BME280;66989;50.426;15.352;2023-02-27T10:45:13;99100.53;;;14.61;24.74
77799;BME280;66989;50.426;15.352;2023-02-27T10:47:40;99095.34;;;13.91;26.38
77799;BME280;66989;50.426;15.352;2023-02-27T10:52:59;99117.47;;;10.98;29.73
77799;BME280;66989;50.426;15.352;2023-02-27T10:55:30;99122.19;;;9.77;31.95
77799;BME280;66989;50.426;15.352;2023-02-27T10:57:57;99124.50;;;8.90;33.34
77799;BME280;66989;50.426;15.352;2023-02-27T11:00:44;99132.97;;;7.79;35.36
77799;BME280;66989;50.426;15.352;2023-02-27T11:03:36;99134.13;;;7.38;36.88
77799;BME280;66989;50.426;15.352;2023-02-27T11:08:34;99136.34;;;6.53;39.45
77799;BME280;66989;50.426;15.352;2023-02-27T11:11:07;99133.59;;;6.17;39.72
77799;BME280;66989;50.426;15.352;2023-02-27T11:13:41;99133.94;;;6.09;40.17
77799;BME280;66989;50.426;15.352;2023-02-27T11:16:19;99135.53;;;5.51;40.43
77799;BME280;66989;50.426;15.352;2023-02-27T11:18:49;99133.38;;;5.18;41.09
77799;BME280;66989;50.426;15.352;2023-02-27T11:21:25;99141.81;;;5.03;41.38
77799;BME280;66989;50.426;15.352;2023-02-27T11:23:58;99140.09;;;4.80;41.97
77799;BME280;66989;50.426;15.352;2023-02-27T11:26:31;99145.00;;;4.66;42.05
77799;BME280;66989;50.426;15.352;2023-02-27T11:31:36;99148.38;;;4.21;42.67
77799;BME280;66989;50.426;15.352;2023-02-27T11:34:02;99148.88;;;4.07;43.59
77799;BME280;66989;50.426;15.352;2023-02-27T11:36:50;99155.75;;;3.58;46.30
77799;BME280;66989;50.426;15.352;2023-02-27T11:39:24;99158.13;;;3.11;50.88
77799;BME280;66989;50.426;15.352;2023-02-27T11:41:52;99164.13;;;2.85;54.61
77799;BME280;66989;50.426;15.352;2023-02-27T11:44:21;99166.22;;;2.43;56.37
77799;BME280;66989;50.426;15.352;2023-02-27T11:46:48;99163.41;;;2.19;56.31
77799;BME280;66989;50.426;15.352;2023-02-27T11:49:32;99160.00;;;2.17;56.22
77799;BME280;66989;50.426;15.352;2023-02-27T11:52:02;99159.44;;;2.05;56.86
77799;BME280;66989;50.426;15.352;2023-02-27T11:54:48;99170.16;;;1.94;57.32
77799;BME280;66989;50.426;15.352;2023-02-27T11:57:26;99167.66;;;1.89;58.26
77799;BME280;66989;50.426;15.352;2023-02-27T12:00:13;99163.47;;;1.84;58.50
77799;BME280;66989;50.426;15.352;2023-02-27T12:02:47;99162.31;;;1.95;57.93
77799;BME280;66989;50.426;15.352;2023-02-27T12:05:39;99162.78;;;2.11;58.20
77799;BME280;66989;50.426;15.352;2023-02-27T12:11:05;99164.53;;;2.40;60.00
77799;BME280;66989;50.426;15.352;2023-02-27T12:13:37;99163.81;;;2.35;61.33
77799;BME280;66989;50.426;15.352;2023-02-27T12:16:40;99162.19;;;2.33;62.69
77799;BME280;66989;50.426;15.352;2023-02-27T12:22:35;99167.41;;;2.62;60.50
77799;BME280;66989;50.426;15.352;2023-02-27T12:25:09;99163.53;;;2.75;58.79
77799;BME280;66989;50.426;15.352;2023-02-27T12:27:50;99164.31;;;2.79;56.52
77799;BME280;66989;50.426;15.352;2023-02-27T12:30:25;99157.44;;;2.76;56.39
77799;BME280;66989;50.426;15.352;2023-02-27T12:35:35;99153.84;;;2.81;57.95
77799;BME280;66989;50.426;15.352;2023-02-27T12:38:04;99154.50;;;2.87;58.12
77799;BME280;66989;50.426;15.352;2023-02-27T12:40:38;99162.31;;;2.87;59.24
77799;BME280;66989;50.426;15.352;2023-02-27T12:43:32;99157.50;;;3.03;58.99
77799;BME280;66989;50.426;15.352;2023-02-27T12:56:49;99151.50;;;4.05;57.79
77799;BME280;66989;50.426;15.352;2023-02-27T13:16:14;99134.03;;;8.44;44.96
77799;BME280;66989;50.426;15.352;2023-02-27T13:21:39;99116.22;;;13.24;34.64
77799;BME280;66989;50.426;15.352;2023-02-27T13:24:36;99104.97;;;14.83;30.69
77799;BME280;66989;50.426;15.352;2023-02-27T13:29:39;99098.16;;;16.30;26.92
77799;BME280;66989;50.426;15.352;2023-02-27T13:32:23;99094.09;;;18.14;23.55
77799;BME280;66989;50.426;15.352;2023-02-27T13:35:01;99085.53;;;17.92;23.36
77799;BME280;66989;50.426;15.352;2023-02-27T13:37:57;99102.44;;;15.79;25.40
77799;BME280;66989;50.426;15.352;2023-02-27T13:40:38;99093.66;;;17.32;24.70
77799;BME280;66989;50.426;15.352;2023-02-27T13:43:33;99079.75;;;19.00;22.05
77799;BME280;66989;50.426;15.352;2023-02-27T13:46:03;99076.59;;;19.67;21.32
77799;BME280;66989;50.426;15.352;2023-02-27T13:48:46;99088.88;;;19.25;21.23
77799;BME280;66989;50.426;15.352;2023-02-27T13:51:52;99094.19;;;17.16;22.95
77799;BME280;66989;50.426;15.352;2023-02-27T13:54:27;99104.50;;;15.44;25.77
77799;BME280;66989;50.426;15.352;2023-02-27T13:59:20;99112.16;;;11.67;30.34
77799;BME280;66989;50.426;15.352;2023-02-27T14:04:17;99136.91;;;9.20;33.69
77799;BME280;66989;50.426;15.352;2023-02-27T14:06:46;99137.16;;;8.17;35.93
77799;BME280;66989;50.426;15.352;2023-02-27T14:09:17;99148.06;;;7.03;36.84
77799;BME280;66989;50.426;15.352;2023-02-27T14:11:56;99142.72;;;6.48;37.91
77799;BME280;66989;50.426;15.352;2023-02-27T14:14:45;99139.84;;;5.94;39.71
77799;BME280;66989;50.426;15.352;2023-02-27T14:19:59;99152.28;;;4.32;44.43
77799;BME280;66989;50.426;15.352;2023-02-27T14:22:36;99151.78;;;3.98;46.72
77799;BME280;66989;50.426;15.352;2023-02-27T14:25:13;99158.13;;;3.38;49.95
77799;BME280;66989;50.426;15.352;2023-02-27T14:33:14;99166.16;;;2.13;52.43
77799;BME280;66989;50.426;15.352;2023-02-27T14:35:44;99176.47;;;1.84;53.90
77799;BME280;66989;50.426;15.352;2023-02-27T14:38:10;99173.25;;;1.76;54.43
77799;BME280;66989;50.426;15.352;2023-02-27T14:41:09;99176.59;;;1.79;55.45
77799;BME280;66989;50.426;15.352;2023-02-27T14:43:40;99168.00;;;1.77;56.72
77799;BME280;66989;50.426;15.352;2023-02-27T14:46:15;99173.03;;;1.83;56.13
77799;BME280;66989;50.426;15.352;2023-02-27T14:48:44;99181.84;;;1.78;55.65
77799;BME280;66989;50.426;15.352;2023-02-27T14:51:09;99175.91;;;1.72;55.77
77799;BME280;66989;50.426;15.352;2023-02-27T14:53:35;99186.97;;;1.81;55.83
77799;BME280;66989;50.426;15.352;2023-02-27T14:56:00;99183.66;;;1.74;55.29
77799;BME280;66989;50.426;15.352;2023-02-27T14:58:26;99183.59;;;1.77;54.77
77799;BME280;66989;50.426;15.352;2023-02-27T15:01:04;99186.22;;;1.76;54.38
77799;BME280;66989;50.426;15.352;2023-02-27T15:03:34;99190.31;;;1.84;54.27
77799;BME280;66989;50.426;15.352;2023-02-27T15:06:11;99195.53;;;1.84;54.38
77799;BME280;66989;50.426;15.352;2023-02-27T15:08:39;99193.13;;;1.77;54.27
77799;BME280;66989;50.426;15.352;2023-02-27T15:11:08;99203.97;;;1.58;54.22
77799;BME280;66989;50.426;15.352;2023-02-27T15:13:38;99201.88;;;1.37;54.22
77799;BME280;66989;50.426;15.352;2023-02-27T15:16:36;99191.72;;;1.28;55.48
77799;BME280;66989;50.426;15.352;2023-02-27T15:19:15;99197.03;;;1.21;55.39
77799;BME280;66989;50.426;15.352;2023-02-27T15:21:45;99204.97;;;1.15;56.28